Time;durP1;ratioP1;P1;durP2;ratioP2;P2;SDS_P1;SDS_P2;PMS_P1;PMS_P2;Temp;Humidity;BMP_temperature;BMP_pressure;BME280_temperature;BME280_humidity;BME280_pressure;Samples;Min_cycle;Max_cycle;Signal;HPM_P1;HPM_P2
2021/03/24 00:00:24;;;;;;;8.32;7.50;;;-1.00;75.40;;;;;;5126598;28;20043;-65
2021/03/24 00:02:56;;;;;;;8.15;7.35;;;-1.10;75.50;;;;;;5124054;28;20067;-65
2021/03/24 00:05:34;;;;;;;9.40;8.35;;;-1.20;75.80;;;;;;5126520;28;20491;-65
2021/03/24 00:08:07;;;;;;;8.15;7.35;;;-1.30;77.00;;;;;;5126755;28;20101;-66
2021/03/24 00:10:40;;;;;;;8.60;7.78;;;-1.30;76.50;;;;;;5126060;28;20457;-67
2021/03/24 00:13:12;;;;;;;10.73;8.40;;;-1.30;76.60;;;;;;5121183;28;20061;-67
2021/03/24 00:15:43;;;;;;;8.95;7.72;;;-1.30;75.90;;;;;;5127540;28;20102;-67
2021/03/24 00:18:15;;;;;;;7.75;7.03;;;-1.20;75.60;;;;;;5125685;28;20121;-66
2021/03/24 00:20:47;;;;;;;8.70;7.80;;;-1.10;75.30;;;;;;5126700;28;20039;-65
2021/03/24 00:23:18;;;;;;;8.65;7.85;;;-1.10;74.40;;;;;;5131354;28;20421;-66
2021/03/24 00:25:50;;;;;;;9.25;7.65;;;-1.00;73.40;;;;;;5125558;28;20465;-66
2021/03/24 00:28:22;;;;;;;9.30;6.97;;;-0.90;73.00;;;;;;5129940;28;20070;-66
2021/03/24 00:30:54;;;;;;;8.32;7.53;;;-1.00;73.30;;;;;;5126403;28;20454;-67
2021/03/24 00:33:26;;;;;;;9.02;7.70;;;-1.10;74.50;;;;;;5126829;28;20129;-67
2021/03/24 00:35:59;;;;;;;8.57;7.78;;;-1.10;74.50;;;;;;5124127;28;20051;-67
2021/03/24 00:38:30;;;;;;;9.38;8.18;;;-1.10;74.80;;;;;;5126856;28;20077;-68
2021/03/24 00:41:02;;;;;;;9.85;7.80;;;-1.10;74.50;;;;;;5127667;28;20469;-67
2021/03/24 00:43:34;;;;;;;8.55;7.78;;;-1.10;74.10;;;;;;5124433;28;20130;-66
2021/03/24 00:46:05;;;;;;;8.60;7.80;;;-1.20;74.20;;;;;;5130580;28;20597;-67
2021/03/24 00:48:36;;;;;;;8.45;7.53;;;-1.30;75.30;;;;;;5125035;28;20102;-66
2021/03/24 00:51:08;;;;;;;8.68;7.72;;;-1.30;75.90;;;;;;5126139;28;20412;-67
2021/03/24 00:53:39;;;;;;;8.38;7.30;;;-1.50;75.80;;;;;;5124662;28;20110;-68
2021/03/24 00:56:11;;;;;;;7.97;7.28;;;-1.50;75.90;;;;;;5137710;28;20035;-66
2021/03/24 00:58:42;;;;;;;8.32;7.50;;;-1.50;75.20;;;;;;5125824;28;20047;-67
2021/03/24 01:01:14;;;;;;;7.90;7.10;;;-1.40;74.60;;;;;;5124596;28;20047;-66
2021/03/24 01:03:45;;;;;;;8.88;8.00;;;-1.30;74.40;;;;;;5124420;28;20062;-68
2021/03/24 01:06:17;;;;;;;9.00;8.10;;;-1.30;73.60;;;;;;5124599;28;20043;-67
2021/03/24 01:08:48;;;;;;;8.38;7.57;;;-1.20;73.10;;;;;;5126714;28;20413;-67
2021/03/24 01:11:20;;;;;;;8.27;7.43;;;-1.30;72.90;;;;;;5124665;28;20055;-66
2021/03/24 01:13:52;;;;;;;8.93;7.40;;;-1.40;74.30;;;;;;5126329;28;20105;-65
2021/03/24 01:16:23;;;;;;;8.07;7.28;;;-1.40;75.40;;;;;;5122174;28;20130;-66
2021/03/24 01:18:55;;;;;;;8.70;7.85;;;-1.40;75.60;;;;;;5125209;28;20050;-67
2021/03/24 01:21:26;;;;;;;8.43;7.63;;;-1.40;75.70;;;;;;5120835;28;20637;-66
2021/03/24 01:24:07;;;;;;;8.05;7.25;;;-1.40;75.10;;;;;;5124055;28;20042;-66
2021/03/24 01:26:38;;;;;;;8.70;7.90;;;-1.40;75.10;;;;;;5127027;28;20046;-66
2021/03/24 01:29:10;;;;;;;10.07;8.98;;;-1.30;74.90;;;;;;5125989;28;20047;-67
2021/03/24 01:31:41;;;;;;;10.45;9.02;;;-1.30;73.70;;;;;;5124702;28;20079;-66
2021/03/24 01:34:12;;;;;;;8.23;7.53;;;-1.30;73.60;;;;;;5124621;28;20051;-66
2021/03/24 01:36:44;;;;;;;8.88;7.20;;;-1.30;73.20;;;;;;5124834;28;20094;-66
2021/03/24 01:39:15;;;;;;;7.70;6.97;;;-1.40;73.70;;;;;;5123010;28;20464;-66
2021/03/24 01:41:47;;;;;;;8.45;7.40;;;-1.40;73.30;;;;;;5126122;28;20046;-65
2021/03/24 01:44:18;;;;;;;8.77;7.97;;;-1.40;73.20;;;;;;5124495;28;20042;-66
2021/03/24 01:46:50;;;;;;;8.90;7.50;;;-1.40;73.20;;;;;;5125238;28;20690;-66
2021/03/24 01:49:32;;;;;;;8.25;6.65;;;-1.40;72.70;;;;;;5124372;28;20051;-66
2021/03/24 01:52:07;;;;;;;7.97;7.28;;;-1.50;73.50;;;;;;5125956;28;20154;-67
2021/03/24 01:54:43;;;;;;;8.02;7.22;;;-1.50;74.70;;;;;;5124535;28;20070;-67
2021/03/24 01:57:22;;;;;;;7.60;6.88;;;-1.50;75.10;;;;;;5128685;28;20665;-66
2021/03/24 01:59:55;;;;;;;8.10;7.30;;;-1.60;75.50;;;;;;5120696;28;20070;-66
2021/03/24 02:02:31;;;;;;;8.65;7.75;;;-1.60;74.50;;;;;;5121576;28;20125;-67
2021/03/24 02:05:05;;;;;;;9.70;8.30;;;-1.80;76.50;;;;;;5123503;28;20417;-66
2021/03/24 02:08:04;;;;;;;9.85;8.88;;;-2.00;75.90;;;;;;5124103;28;20121;-67
2021/03/24 02:10:43;;;;;;;9.50;8.50;;;-2.00;74.70;;;;;;5117453;28;20048;-66
2021/03/24 02:13:33;;;;;;;8.40;7.50;;;-1.90;74.40;;;;;;5129011;28;20520;-67
2021/03/24 02:16:22;;;;;;;8.60;7.60;;;-1.90;74.20;;;;;;5126889;28;20051;-66
2021/03/24 02:18:56;;;;;;;9.15;8.25;;;-2.00;74.30;;;;;;5126320;28;20051;-67
2021/03/24 02:21:33;;;;;;;8.52;7.63;;;-2.00;74.00;;;;;;5127768;28;20118;-67
2021/03/24 02:24:40;;;;;;;7.60;6.68;;;-1.90;75.10;;;;;;5126557;28;20158;-66
2021/03/24 02:27:29;;;;;;;8.00;7.10;;;-2.00;76.90;;;;;;5122545;28;20547;-67
2021/03/24 02:30:10;;;;;;;7.35;6.70;;;-2.00;77.90;;;;;;5127719;28;20043;-67
2021/03/24 02:32:48;;;;;;;7.60;6.90;;;-1.90;78.10;;;;;;5128788;28;20087;-67
2021/03/24 02:35:28;;;;;;;7.43;6.72;;;-1.90;77.30;;;;;;5127997;28;20129;-66
2021/03/24 02:38:02;;;;;;;7.40;6.63;;;-1.90;77.20;;;;;;5126582;28;20038;-68
2021/03/24 02:40:36;;;;;;;7.50;6.80;;;-1.80;77.50;;;;;;5125609;28;20413;-66
2021/03/24 02:43:09;;;;;;;8.05;7.25;;;-1.80;77.30;;;;;;5128286;28;20509;-66
2021/03/24 02:45:45;;;;;;;7.80;7.10;;;-1.90;77.00;;;;;;5127122;28;20050;-66
2021/03/24 02:48:22;;;;;;;7.95;7.15;;;-1.90;76.70;;;;;;5125933;28;20039;-67
2021/03/24 02:51:00;;;;;;;7.30;6.65;;;-1.90;77.10;;;;;;5125015;28;20568;-66
2021/03/24 02:53:33;;;;;;;7.72;7.00;;;-1.90;77.50;;;;;;5126813;28;20074;-65
2021/03/24 02:56:07;;;;;;;9.13;7.65;;;-1.90;77.10;;;;;;5128544;28;20047;-66
2021/03/24 02:58:39;;;;;;;9.65;8.75;;;-1.90;75.70;;;;;;5128451;28;20070;-67
2021/03/24 03:01:55;;;;;;;9.32;8.07;;;-2.00;76.40;;;;;;5126238;28;20134;-68
2021/03/24 03:04:38;;;;;;;7.75;7.05;;;-2.00;75.30;;;;;;5127626;28;20848;-66
2021/03/24 03:07:21;;;;;;;8.43;7.60;;;-2.10;75.70;;;;;;5127690;28;20217;-66
2021/03/24 03:10:00;;;;;;;7.80;7.07;;;-2.10;75.50;;;;;;5127534;28;20122;-66
2021/03/24 03:12:57;;;;;;;9.25;7.50;;;-2.00;75.70;;;;;;5124469;28;20104;-65
2021/03/24 03:15:46;;;;;;;8.48;7.35;;;-2.00;75.50;;;;;;5125116;28;20532;-66
2021/03/24 03:18:23;;;;;;;8.65;7.80;;;-2.00;75.30;;;;;;5131446;28;20043;-66
2021/03/24 03:21:00;;;;;;;8.05;6.90;;;-1.90;75.10;;;;;;5127132;28;20412;-66
2021/03/24 03:23:34;;;;;;;6.95;6.30;;;-1.90;75.00;;;;;;5133750;28;20070;-67
2021/03/24 03:26:12;;;;;;;6.93;6.22;;;-1.90;74.70;;;;;;5126596;28;20047;-66
2021/03/24 03:28:46;;;;;;;7.63;6.93;;;-1.90;74.40;;;;;;5126437;28;20109;-66
2021/03/24 03:31:24;;;;;;;7.57;6.88;;;-1.90;74.30;;;;;;5127560;28;20043;-66
2021/03/24 03:33:56;;;;;;;7.40;6.70;;;-2.00;74.10;;;;;;5126969;28;20079;-66
2021/03/24 03:36:31;;;;;;;7.90;7.10;;;-2.00;73.90;;;;;;5126066;28;20074;-66
2021/03/24 03:39:04;;;;;;;8.45;7.57;;;-2.10;74.90;;;;;;5126162;28;20094;-66
2021/03/24 03:41:37;;;;;;;7.20;6.50;;;-2.10;76.20;;;;;;5129703;28;20801;-67
2021/03/24 03:44:10;;;;;;;7.13;6.40;;;-2.10;76.90;;;;;;5125418;28;20047;-67
2021/03/24 03:46:46;;;;;;;7.13;6.43;;;-2.10;76.90;;;;;;5125366;28;20519;-67
2021/03/24 03:49:19;;;;;;;7.20;6.60;;;-2.00;77.00;;;;;;5129437;28;20074;-65
2021/03/24 03:52:08;;;;;;;7.28;6.60;;;-2.00;76.70;;;;;;5127691;28;20055;-66
2021/03/24 03:55:14;;;;;;;7.05;6.30;;;-2.00;77.20;;;;;;5124877;28;20500;-66
2021/03/24 03:57:56;;;;;;;7.07;6.38;;;-2.10;76.90;;;;;;5124719;28;20054;-66
2021/03/24 04:00:27;;;;;;;7.45;6.70;;;-2.10;77.80;;;;;;5124837;28;20133;-67
2021/03/24 04:03:10;;;;;;;8.05;7.13;;;-2.10;76.70;;;;;;5127440;28;20070;-66
2021/03/24 04:05:53;;;;;;;8.57;7.78;;;-2.10;75.80;;;;;;5127291;28;20077;-67
2021/03/24 04:08:30;;;;;;;7.68;6.97;;;-2.10;75.50;;;;;;5126613;28;20079;-68
2021/03/24 04:11:10;;;;;;;7.18;6.47;;;-2.10;76.00;;;;;;5125962;28;20059;-67
2021/03/24 04:13:46;;;;;;;7.95;7.25;;;-2.00;74.50;;;;;;5125901;28;20130;-67
2021/03/24 04:16:17;;;;;;;7.57;6.78;;;-2.10;74.00;;;;;;5122985;28;20602;-67
2021/03/24 04:18:54;;;;;;;7.72;6.32;;;-2.10;73.30;;;;;;5127496;28;20071;-67
2021/03/24 04:21:28;;;;;;;7.50;6.80;;;-2.20;74.50;;;;;;5125446;28;20050;-67
2021/03/24 04:24:07;;;;;;;7.13;6.53;;;-2.20;75.60;;;;;;5126585;28;20051;-66
2021/03/24 04:26:44;;;;;;;7.28;6.57;;;-2.20;75.90;;;;;;5124566;28;20042;-66
2021/03/24 04:29:26;;;;;;;8.30;6.72;;;-2.20;75.30;;;;;;5127934;28;20074;-67
2021/03/24 04:32:03;;;;;;;7.53;6.80;;;-2.30;74.10;;;;;;5125858;28;20094;-66
2021/03/24 04:34:35;;;;;;;7.70;7.00;;;-2.30;74.40;;;;;;5126904;28;20431;-66
2021/03/24 04:37:14;;;;;;;7.88;6.80;;;-2.40;73.80;;;;;;5127338;28;20527;-66
2021/03/24 04:39:51;;;;;;;7.65;6.95;;;-2.40;74.40;;;;;;5125211;28;20047;-66
2021/03/24 04:42:27;;;;;;;7.97;7.18;;;-2.40;74.00;;;;;;5125123;28;20078;-66
2021/03/24 04:45:04;;;;;;;7.45;6.75;;;-2.40;74.70;;;;;;5125507;28;20047;-65
2021/03/24 04:47:38;;;;;;;7.53;6.78;;;-2.50;75.20;;;;;;5122527;28;20134;-66
2021/03/24 04:50:41;;;;;;;7.93;6.90;;;-2.50;75.70;;;;;;5123737;28;20042;-66
2021/03/24 04:53:17;;;;;;;8.27;6.80;;;-2.50;74.80;;;;;;5114282;28;20039;-66
2021/03/24 04:55:51;;;;;;;7.75;7.00;;;-2.50;74.80;;;;;;5126091;28;20053;-66
2021/03/24 04:58:29;;;;;;;8.10;6.55;;;-2.50;75.40;;;;;;5123639;28;20130;-65
2021/03/24 05:01:07;;;;;;;8.45;7.55;;;-2.50;75.00;;;;;;5121917;28;20090;-65
2021/03/24 05:03:42;;;;;;;7.30;6.55;;;-2.50;74.30;;;;;;5123763;28;20031;-66
2021/03/24 05:06:52;;;;;;;7.30;6.60;;;-2.50;74.20;;;;;;5125269;28;20532;-65
2021/03/24 05:09:23;;;;;;;7.97;7.18;;;-2.50;74.50;;;;;;5073388;29;20051;-66
2021/03/24 05:12:24;;;;;;;7.55;6.85;;;-2.50;74.40;;;;;;5117264;28;20596;-67
2021/03/24 05:14:59;;;;;;;7.82;6.95;;;-2.50;74.80;;;;;;5133833;28;20130;-68
2021/03/24 05:17:35;;;;;;;7.18;6.50;;;-2.50;74.90;;;;;;5126769;28;20055;-67
2021/03/24 05:20:22;;;;;;;7.38;6.68;;;-2.50;74.00;;;;;;5123967;28;20050;-67
2021/03/24 05:22:54;;;;;;;7.95;6.78;;;-2.60;74.30;;;;;;5127865;28;20051;-67
2021/03/24 05:25:34;;;;;;;7.30;6.35;;;-2.70;74.70;;;;;;5124064;28;20161;-66
2021/03/24 05:28:29;;;;;;;6.85;6.15;;;-2.60;75.10;;;;;;5126435;28;20142;-67
2021/03/24 05:31:08;;;;;;;6.53;5.93;;;-2.60;74.50;;;;;;5126218;28;20047;-67
2021/03/24 05:33:43;;;;;;;7.28;6.35;;;-2.60;73.80;;;;;;5132699;28;20059;-66
2021/03/24 05:36:19;;;;;;;6.45;5.85;;;-2.60;73.40;;;;;;5123639;28;20441;-65
2021/03/24 05:38:53;;;;;;;7.45;5.80;;;-2.50;73.40;;;;;;5126351;28;20153;-66
2021/03/24 05:41:30;;;;;;;7.38;6.53;;;-2.50;73.60;;;;;;5126831;28;20046;-65
2021/03/24 05:44:16;;;;;;;7.22;6.32;;;-2.60;73.00;;;;;;5125385;28;20509;-66
2021/03/24 05:47:09;;;;;;;6.97;6.18;;;-2.90;74.70;;;;;;5125293;28;20477;-66
2021/03/24 05:50:11;;;;;;;7.63;6.20;;;-3.00;74.80;;;;;;5126922;28;20119;-67
2021/03/24 05:53:36;;;;;;;6.68;5.88;;;-2.90;74.30;;;;;;5129798;28;20059;-66
2021/03/24 05:57:05;;;;;;;7.70;6.55;;;-2.80;75.20;;;;;;5068415;29;20056;-66
2021/03/24 06:00:15;;;;;;;6.65;5.95;;;-2.50;75.00;;;;;;5048109;28;20104;-66
2021/03/24 06:03:04;;;;;;;8.25;5.88;;;-2.30;74.70;;;;;;5118546;28;20584;-65
2021/03/24 06:06:00;;;;;;;6.78;5.93;;;-2.20;75.40;;;;;;5126957;28;20043;-65
2021/03/24 06:08:53;;;;;;;6.43;5.72;;;-2.00;75.90;;;;;;5130158;28;20110;-66
2021/03/24 06:11:43;;;;;;;7.93;6.10;;;-1.80;75.30;;;;;;5129133;28;20051;-66
2021/03/24 06:14:42;;;;;;;8.88;6.70;;;-1.60;74.80;;;;;;5128877;28;20078;-66
2021/03/24 06:17:29;;;;;;;8.57;6.57;;;-1.40;73.50;;;;;;5127098;28;20794;-65
2021/03/24 06:20:20;;;;;;;7.63;6.82;;;-1.30;72.70;;;;;;5128314;28;20035;-66
2021/03/24 06:23:16;;;;;;;7.93;7.13;;;-1.20;72.10;;;;;;5128195;28;20151;-66
2021/03/24 06:25:55;;;;;;;7.32;6.10;;;-1.20;72.20;;;;;;5130135;28;20573;-65
2021/03/24 06:28:36;;;;;;;6.97;6.28;;;-0.90;71.80;;;;;;5128678;28;20398;-66
2021/03/24 06:31:22;;;;;;;;;;;-0.80;71.30;;;;;;5126910;28;20107;-66
2021/03/24 06:34:13;;;;;;;7.50;5.90;;;-0.60;71.20;;;;;;5126593;28;19930;-66
2021/03/24 06:36:53;;;;;;;9.68;6.88;;;-0.40;70.10;;;;;;5127245;28;20082;-65
2021/03/24 06:39:50;;;;;;;7.90;6.78;;;-0.30;70.40;;;;;;5128237;28;20082;-66
2021/03/24 06:42:52;;;;;;;6.82;6.10;;;-0.20;70.40;;;;;;5124370;28;20145;-66
2021/03/24 06:45:44;;;;;;;6.88;6.15;;;-0.10;69.80;;;;;;5124198;28;20051;-66
2021/03/24 06:48:34;;;;;;;7.32;6.63;;;0.10;69.70;;;;;;5128243;28;20051;-66
2021/03/24 06:51:24;;;;;;;;;;;0.40;69.10;;;;;;5117210;28;20042;-66
2021/03/24 06:54:12;;;;;;;11.63;6.50;;;0.50;69.40;;;;;;5128546;28;20047;-67
2021/03/24 06:57:11;;;;;;;7.55;6.72;;;0.80;69.10;;;;;;5124974;28;20068;-66
2021/03/24 06:59:48;;;;;;;7.72;6.18;;;1.00;68.70;;;;;;5126698;28;20051;-67
2021/03/24 07:03:00;;;;;;;7.90;7.10;;;1.20;68.00;;;;;;5122607;28;20051;-66
2021/03/24 07:05:45;;;;;;;7.40;6.60;;;1.20;66.60;;;;;;5123712;28;20178;-65
2021/03/24 07:08:27;;;;;;;8.02;7.22;;;1.20;65.80;;;;;;5126412;28;20101;-66
2021/03/24 07:11:23;;;;;;;8.48;7.47;;;1.30;67.20;;;;;;5124254;28;20122;-67
2021/03/24 07:14:17;;;;;;;8.82;7.10;;;1.30;67.00;;;;;;5126498;28;20141;-66
2021/03/24 07:17:31;;;;;;;10.13;7.95;;;1.60;67.40;;;;;;5128704;28;20086;-65
2021/03/24 07:20:21;;;;;;;12.85;9.00;;;1.90;66.60;;;;;;5115452;28;20066;-67
2021/03/24 07:23:31;;;;;;;13.32;8.90;;;2.00;65.60;;;;;;5127580;28;20051;-66
2021/03/24 07:26:09;;;;;;;9.38;8.40;;;2.20;64.70;;;;;;5127856;28;20051;-66
2021/03/24 07:28:52;;;;;;;8.38;7.57;;;2.20;65.80;;;;;;5127246;28;20069;-66
2021/03/24 07:32:03;;;;;;;9.52;8.13;;;2.40;65.00;;;;;;5126822;28;20082;-66
2021/03/24 07:34:50;;;;;;;10.02;8.25;;;2.60;64.30;;;;;;5123836;28;20043;-69
2021/03/24 07:37:42;;;;;;;9.48;7.43;;;2.60;62.90;;;;;;5125283;28;20078;-66
2021/03/24 07:40:42;;;;;;;8.77;7.93;;;2.50;63.60;;;;;;5125840;28;20774;-66
2021/03/24 07:43:15;;;;;;;9.18;7.43;;;2.30;63.90;;;;;;5124161;28;20050;-67
2021/03/24 07:46:07;;;;;;;9.05;8.05;;;2.40;64.10;;;;;;5125675;28;20406;-67
2021/03/24 07:49:11;;;;;;;8.73;7.82;;;2.50;63.60;;;;;;5127924;28;20047;-66
2021/03/24 07:52:11;;;;;;;10.02;7.80;;;2.50;63.90;;;;;;5117855;28;20609;-67
2021/03/24 07:55:02;;;;;;;8.20;7.40;;;2.70;64.00;;;;;;5126144;28;20047;-66
2021/03/24 07:58:31;;;;;;;8.00;7.20;;;2.80;63.20;;;;;;5127952;28;20069;-66
2021/03/24 08:01:40;;;;;;;7.68;6.70;;;3.00;62.90;;;;;;5128909;28;20765;-66
2021/03/24 08:04:40;;;;;;;7.50;6.80;;;3.20;62.00;;;;;;5124218;28;20049;-67
2021/03/24 08:07:23;;;;;;;7.38;6.68;;;3.40;61.50;;;;;;5127058;28;20160;-66
2021/03/24 08:10:29;;;;;;;7.63;6.70;;;3.60;62.20;;;;;;5126426;28;20110;-67
2021/03/24 08:13:39;;;;;;;7.28;6.65;;;3.80;61.80;;;;;;5126261;28;20051;-67
2021/03/24 08:16:33;;;;;;;8.10;7.40;;;4.00;60.20;;;;;;5125791;28;20841;-67
2021/03/24 08:19:44;;;;;;;7.60;6.90;;;4.20;61.70;;;;;;5129489;28;20047;-66
2021/03/24 08:22:43;;;;;;;8.98;7.30;;;4.50;60.00;;;;;;5126655;28;20757;-66
2021/03/24 08:25:24;;;;;;;9.27;7.43;;;4.80;59.60;;;;;;5127151;28;20075;-66
2021/03/24 08:28:14;;;;;;;7.40;6.70;;;5.00;58.90;;;;;;5127759;28;20146;-67
2021/03/24 08:31:18;;;;;;;8.80;7.90;;;5.20;59.30;;;;;;5124766;28;20627;-66
2021/03/24 08:34:02;;;;;;;8.05;7.25;;;5.50;58.30;;;;;;5133313;28;20058;-66
2021/03/24 08:37:01;;;;;;;8.80;8.00;;;5.60;56.30;;;;;;5127174;28;20047;-68
2021/03/24 08:40:06;;;;;;;9.55;7.43;;;5.70;57.00;;;;;;5122705;28;20051;-67
2021/03/24 08:43:08;;;;;;;8.50;7.70;;;5.80;57.50;;;;;;5129802;28;20138;-67
2021/03/24 08:46:13;;;;;;;8.57;7.75;;;6.20;56.70;;;;;;5124813;28;20059;-65
2021/03/24 08:49:01;;;;;;;7.97;7.18;;;6.30;55.50;;;;;;5127586;28;20588;-67
2021/03/24 08:51:33;;;;;;;8.38;7.57;;;6.40;54.10;;;;;;5125944;28;20070;-66
2021/03/24 08:54:44;;;;;;;8.25;7.53;;;6.40;54.20;;;;;;5124407;28;20039;-67
2021/03/24 08:57:45;;;;;;;8.50;7.70;;;6.50;54.90;;;;;;5123111;28;20094;-68
2021/03/24 09:00:26;;;;;;;8.70;7.88;;;6.80;55.30;;;;;;5124604;28;20051;-66
2021/03/24 09:03:20;;;;;;;9.07;7.97;;;7.00;52.80;;;;;;5125674;28;20043;-67
2021/03/24 09:06:04;;;;;;;8.90;8.10;;;7.20;54.40;;;;;;5121868;28;20046;-68
2021/03/24 09:08:41;;;;;;;8.43;7.53;;;7.30;51.80;;;;;;5125656;28;20061;-65
2021/03/24 09:11:23;;;;;;;8.85;8.05;;;7.40;53.50;;;;;;5124735;28;20681;-68
2021/03/24 09:14:32;;;;;;;8.93;8.00;;;7.50;53.40;;;;;;5125667;28;20631;-67
2021/03/24 09:17:28;;;;;;;8.75;7.90;;;7.70;53.30;;;;;;5125980;28;20110;-66
2021/03/24 09:20:23;;;;;;;8.70;7.90;;;8.00;51.60;;;;;;5123397;28;20118;-68
2021/03/24 09:23:32;;;;;;;8.52;7.72;;;8.10;50.00;;;;;;5127513;28;20113;-67
2021/03/24 09:26:06;;;;;;;8.55;7.75;;;8.30;50.80;;;;;;5124104;28;20077;-66
2021/03/24 09:29:22;;;;;;;8.60;7.80;;;8.40;50.20;;;;;;5126251;28;20448;-68
2021/03/24 09:32:08;;;;;;;8.90;8.10;;;8.60;47.30;;;;;;5072892;29;20888;-68
2021/03/24 09:35:04;;;;;;;9.48;8.07;;;8.70;48.30;;;;;;5122732;28;20055;-67
2021/03/24 09:37:38;;;;;;;9.73;8.73;;;8.90;49.50;;;;;;5125685;28;20059;-66
2021/03/24 09:40:24;;;;;;;9.55;8.65;;;9.00;48.40;;;;;;5125120;28;20043;-67
2021/03/24 09:42:58;;;;;;;9.68;8.77;;;9.20;48.90;;;;;;5124031;28;20039;-67
2021/03/24 09:45:34;;;;;;;9.18;8.38;;;9.30;47.60;;;;;;5125817;28;20464;-67
2021/03/24 09:48:14;;;;;;;9.43;8.57;;;9.30;47.40;;;;;;5125821;28;20525;-67
2021/03/24 09:51:07;;;;;;;10.75;9.20;;;9.40;46.00;;;;;;5124125;28;20070;-68
2021/03/24 09:53:41;;;;;;;10.27;8.48;;;9.60;48.30;;;;;;5126612;28;20559;-68
2021/03/24 09:56:20;;;;;;;9.52;8.60;;;9.70;48.30;;;;;;5123922;28;20050;-68
2021/03/24 09:59:29;;;;;;;9.60;8.70;;;9.80;47.70;;;;;;5125939;28;20050;-67
2021/03/24 10:02:24;;;;;;;10.23;9.23;;;9.90;47.20;;;;;;5123128;28;20117;-67
2021/03/24 10:05:12;;;;;;;9.95;9.00;;;10.00;47.00;;;;;;5122684;28;20074;-67
2021/03/24 10:07:59;;;;;;;10.15;8.73;;;10.10;45.60;;;;;;5125374;28;20063;-67
2021/03/24 10:10:34;;;;;;;9.95;9.13;;;10.20;45.00;;;;;;5124019;28;20129;-67
2021/03/24 10:13:25;;;;;;;9.18;8.48;;;10.20;43.30;;;;;;5121656;28;20505;-67
2021/03/24 10:16:24;;;;;;;9.80;8.90;;;10.30;44.40;;;;;;5108995;28;20074;-67
2021/03/24 10:19:06;;;;;;;9.82;8.90;;;10.40;42.60;;;;;;5124226;28;20047;-68
2021/03/24 10:21:49;;;;;;;9.45;8.65;;;10.50;42.00;;;;;;5124176;28;20054;-67
2021/03/24 10:24:26;;;;;;;9.48;8.60;;;10.60;43.20;;;;;;5123044;28;20056;-67
2021/03/24 10:27:05;;;;;;;9.65;8.85;;;10.70;41.60;;;;;;5121147;28;20078;-67
2021/03/24 10:29:56;;;;;;;8.88;8.10;;;10.70;41.00;;;;;;5124599;28;20039;-67
2021/03/24 10:32:48;;;;;;;9.35;8.65;;;10.70;39.80;;;;;;5124582;28;20134;-67
2021/03/24 10:35:39;;;;;;;8.93;8.23;;;10.90;39.60;;;;;;5123883;28;20523;-69
2021/03/24 10:38:28;;;;;;;9.23;8.43;;;11.00;41.00;;;;;;5125419;28;20077;-68
2021/03/24 10:41:34;;;;;;;8.95;8.15;;;11.00;39.10;;;;;;5126231;28;20518;-66
2021/03/24 10:44:24;;;;;;;9.93;9.13;;;10.90;38.30;;;;;;5126777;28;20051;-67
2021/03/24 10:47:05;;;;;;;8.65;7.95;;;11.00;38.70;;;;;;5127233;28;20610;-68
2021/03/24 10:49:52;;;;;;;9.48;8.57;;;11.10;38.40;;;;;;5127007;28;20047;-68
2021/03/24 10:52:29;;;;;;;9.73;8.82;;;11.20;40.00;;;;;;5127461;28;20670;-67
2021/03/24 10:55:05;;;;;;;9.65;8.85;;;11.40;39.90;;;;;;5120666;28;20078;-66
2021/03/24 10:57:55;;;;;;;10.55;9.65;;;11.50;39.60;;;;;;5125210;28;20039;-67
2021/03/24 11:00:33;;;;;;;10.23;9.32;;;11.60;39.20;;;;;;5125680;28;20202;-67
2021/03/24 11:03:13;;;;;;;10.20;9.30;;;11.70;38.50;;;;;;5123531;28;20059;-66
2021/03/24 11:05:59;;;;;;;10.00;9.13;;;11.70;39.00;;;;;;5128126;28;20686;-67
2021/03/24 11:08:59;;;;;;;9.63;8.82;;;11.80;37.10;;;;;;5124862;28;20047;-68
2021/03/24 11:11:52;;;;;;;11.15;10.00;;;11.90;38.70;;;;;;5117710;28;20573;-67
2021/03/24 11:14:31;;;;;;;10.23;9.43;;;11.90;38.90;;;;;;5127406;28;20084;-67
2021/03/24 11:17:11;;;;;;;10.00;9.20;;;12.00;38.60;;;;;;5124294;28;20143;-67
2021/03/24 11:19:47;;;;;;;10.75;9.85;;;12.10;38.30;;;;;;5124650;28;20445;-67
2021/03/24 11:22:30;;;;;;;10.43;9.45;;;12.20;37.60;;;;;;5127638;28;20459;-67
2021/03/24 11:25:06;;;;;;;10.88;9.77;;;12.20;38.80;;;;;;5127588;28;20045;-67
2021/03/24 11:27:45;;;;;;;10.18;9.32;;;12.30;38.60;;;;;;5126714;28;20129;-67
2021/03/24 11:30:42;;;;;;;10.38;9.48;;;12.40;37.30;;;;;;5126506;28;20129;-67
2021/03/24 11:33:16;;;;;;;10.38;9.48;;;12.40;38.70;;;;;;5126980;28;20043;-66
2021/03/24 11:36:14;;;;;;;10.63;9.73;;;12.50;38.80;;;;;;5125547;28;20089;-67
2021/03/24 11:38:50;;;;;;;10.30;9.45;;;12.60;38.90;;;;;;5125569;28;20048;-67
2021/03/24 11:41:34;;;;;;;10.98;10.02;;;12.70;38.30;;;;;;5126331;28;20520;-67
2021/03/24 11:44:17;;;;;;;10.48;9.57;;;12.70;37.70;;;;;;5128301;28;20054;-67
2021/03/24 11:46:48;;;;;;;11.68;10.68;;;12.80;37.30;;;;;;5128729;28;20050;-67
2021/03/24 11:49:50;;;;;;;11.93;10.88;;;12.80;36.50;;;;;;5122592;28;20051;-68
2021/03/24 11:52:33;;;;;;;10.93;10.02;;;12.80;37.30;;;;;;5124210;28;20155;-67
2021/03/24 11:55:24;;;;;;;11.15;10.15;;;12.90;37.20;;;;;;5123861;28;20043;-67
2021/03/24 11:58:09;;;;;;;10.32;9.43;;;13.00;37.40;;;;;;5123638;28;20094;-67
2021/03/24 12:01:27;;;;;;;10.60;9.70;;;13.00;37.40;;;;;;5124343;28;20063;-68
2021/03/24 12:04:08;;;;;;;10.95;9.90;;;13.00;37.70;;;;;;5083120;28;20102;-67
2021/03/24 12:06:50;;;;;;;10.50;9.70;;;13.10;36.50;;;;;;5123944;28;20043;-66
2021/03/24 12:09:28;;;;;;;10.68;9.65;;;13.20;36.40;;;;;;5125797;28;20067;-68
2021/03/24 12:12:09;;;;;;;10.82;9.82;;;13.30;37.10;;;;;;5123480;28;20051;-67
2021/03/24 12:14:43;;;;;;;11.55;10.45;;;13.30;35.50;;;;;;5125729;28;20513;-67
2021/03/24 12:17:26;;;;;;;10.60;9.60;;;13.30;36.30;;;;;;5126417;28;20121;-67
2021/03/24 12:20:18;;;;;;;10.63;9.77;;;13.40;36.10;;;;;;5126860;28;20050;-66
2021/03/24 12:22:55;;;;;;;10.30;9.38;;;13.50;36.40;;;;;;5126313;28;20059;-67
2021/03/24 12:25:31;;;;;;;10.60;9.63;;;13.60;36.00;;;;;;5122105;28;20098;-67
2021/03/24 12:28:06;;;;;;;11.38;10.38;;;13.60;35.20;;;;;;5128613;28;20125;-70
2021/03/24 12:30:46;;;;;;;10.60;9.60;;;13.60;35.40;;;;;;5133106;28;20122;-69
2021/03/24 12:33:19;;;;;;;10.90;10.00;;;13.60;35.30;;;;;;5129033;28;20063;-68
2021/03/24 12:36:07;;;;;;;10.88;9.98;;;13.70;35.80;;;;;;5126750;28;20043;-68
2021/03/24 12:38:47;;;;;;;11.50;10.32;;;13.80;35.70;;;;;;5122113;28;20517;-68
2021/03/24 12:41:35;;;;;;;11.05;10.05;;;13.80;35.60;;;;;;5122767;28;20521;-68
2021/03/24 12:44:36;;;;;;;10.65;9.73;;;13.80;34.50;;;;;;5126199;28;20039;-69
2021/03/24 12:47:25;;;;;;;10.90;9.82;;;13.80;35.50;;;;;;5124950;28;20142;-70
2021/03/24 12:50:12;;;;;;;11.07;10.07;;;13.90;35.30;;;;;;5125798;28;20057;-69
2021/03/24 12:53:06;;;;;;;10.80;9.90;;;13.90;34.10;;;;;;5126547;28;20567;-70
2021/03/24 12:55:39;;;;;;;11.73;10.73;;;13.90;35.40;;;;;;5124190;28;20095;-69
2021/03/24 12:58:20;;;;;;;11.68;10.60;;;13.90;35.00;;;;;;5126718;28;20787;-69
2021/03/24 13:01:15;;;;;;;11.75;10.65;;;13.80;35.20;;;;;;5125106;28;20506;-69
2021/03/24 13:03:49;;;;;;;11.65;10.60;;;13.90;35.10;;;;;;5124164;28;20049;-68
2021/03/24 13:06:57;;;;;;;11.25;10.45;;;13.90;34.50;;;;;;5122371;28;20194;-70
2021/03/24 13:09:47;;;;;;;11.45;10.55;;;13.90;35.00;;;;;;5125978;28;20782;-69
2021/03/24 13:12:28;;;;;;;11.50;10.50;;;14.00;34.90;;;;;;5122822;28;20369;-68
2021/03/24 13:15:11;;;;;;;;;;;14.00;34.60;;;;;;5130839;28;20034;-70
2021/03/24 13:18:12;;;;;;;11.60;10.70;;;14.00;34.80;;;;;;5120988;28;19954;-70
2021/03/24 13:20:47;;;;;;;11.80;10.80;;;14.10;34.60;;;;;;5119952;28;20043;-69
2021/03/24 13:23:18;;;;;;;11.57;10.52;;;14.20;34.50;;;;;;5122860;28;20052;-71
2021/03/24 13:25:57;;;;;;;11.68;10.68;;;14.20;34.40;;;;;;5123401;28;20039;-70
2021/03/24 13:28:31;;;;;;;12.05;11.05;;;14.30;34.40;;;;;;5124760;28;20579;-70
2021/03/24 13:31:10;;;;;;;11.68;10.68;;;14.30;34.50;;;;;;5128175;28;20043;-70
2021/03/24 13:34:19;;;;;;;12.20;11.10;;;14.30;34.10;;;;;;5125955;28;20066;-70
2021/03/24 13:36:59;;;;;;;11.30;10.43;;;14.40;34.70;;;;;;5123847;28;20134;-70
2021/03/24 13:39:37;;;;;;;11.77;10.80;;;14.40;33.80;;;;;;5136652;28;20054;-70
2021/03/24 13:42:21;;;;;;;11.75;10.75;;;14.50;33.20;;;;;;5123520;28;20059;-70
2021/03/24 13:45:08;;;;;;;11.77;10.85;;;14.50;33.30;;;;;;5124796;28;20099;-70
2021/03/24 13:48:18;;;;;;;11.63;10.73;;;14.60;33.10;;;;;;5128505;28;20047;-71
2021/03/24 13:51:18;;;;;;;11.98;11.07;;;14.70;32.70;;;;;;5122128;28;20050;-69
2021/03/24 13:53:53;;;;;;;12.13;11.13;;;14.80;31.60;;;;;;5125724;28;20105;-70
2021/03/24 13:56:47;;;;;;;12.68;11.57;;;14.80;31.60;;;;;;5122971;28;20047;-70
2021/03/24 13:59:36;;;;;;;12.35;11.35;;;15.00;32.80;;;;;;5123897;28;20063;-70
2021/03/24 14:02:40;;;;;;;12.40;11.45;;;15.10;33.00;;;;;;5123312;28;20043;-69
2021/03/24 14:05:16;;;;;;;12.48;11.48;;;15.20;32.80;;;;;;5129780;28;20066;-70
2021/03/24 14:08:10;;;;;;;12.77;11.63;;;15.30;31.60;;;;;;5124083;28;20398;-70
2021/03/24 14:10:51;;;;;;;12.20;11.10;;;15.40;31.70;;;;;;5107170;28;20102;-69
2021/03/24 14:13:28;;;;;;;12.00;11.10;;;15.50;31.00;;;;;;5128737;28;20505;-69